Airfield :
LOGIN :

Register | Disclaimer

   EN    FR    IT 

 










Legend :    VFR   Marginal VFR   IFR   Intensive IFR   Very Intensive IFR
Visi :
Ceiling :
>= 8 km
>= 3000ft
5 to 8 km
1000 to 3000 ft
1500m to 5 km
500 to 1000 ft
800 to 1500m
200 to 500 ft
< 800m
< 200 ft
Symbols :   Thunderstorms  Fog  Heavy snow  Heavy precipitations  Wind > 20 kt
SIGMETs :     Misc.  Thunderstorms  Icing  Turbulence  Mountain Waves  Volcanic Ashes






- Airport Elevation : 146 ft
- IATA code : RKE


EKRK - Roskilde Tune

CURRENT METAR :
  • 161750Z AUTO 27006KT 9999 FEW014/// SCT026/// BKN039/// 17/15 Q1008

EXPIRED METARs :
  • 161720Z AUTO 27006KT 9999 -RA BKN045/// 17/14 Q1008
  • 161650Z AUTO 28008KT 9999 FEW018/// BKN044/// 18/14 Q1008
  • 161620Z AUTO 26006KT 9999 FEW045/// SCT049/// 18/14 Q1008
  • 161550Z AUTO 25006KT 9999 FEW021/// BKN051/// 18/14 Q1008

TAF TAF EKRK
Valid from the 16 at 18:00 until the 17 at 03:00 UTC


161713Z 1618/1703 28008KT 9999 SCT012 BKN020
TEMPO 1618/1622 4000 -SHRA BR BKN008 SCT015TCU
BECMG 1622/1624 4000 BR BKN008
TEMPO 1700/1703 2000 -SHRA BKN004 SCT015TCU



MET'MAP, your aeronautical weather chart ! - Copyright ORBIFLY December 2007 - Disclaimer

ORBIFLY MET'MAP TEAM :

Programming & Development : Alexandra Zaïnal
Concept & original design : Baudouin d'Aumeries
Assistance for programming : Marc-Olivier Méhu
Technical & hardware support : Manuel Goepfert

Contact : metmap@orbifly.com




SOURCES & CREDITS :

   NOAA